Nearby METAR Reports

 

KNFE - Fentress Naval, Virginia, USA
Distance from station: ENE 5mi, 7km
Updated: Wed, 03-Mar-2021 6:56pm EST
Clear
Clear
 Wind from calm
Wind: Calm
Temperature: 43°F , 6°C
Dew Point: 30°F , -1°C
Humidity: 61%
Barometer: 29.93 inHg , 1013.5 hPa
Clouds: Clear
Visibility: 10 miles , 16 km
2021/03/03 23:56 KNFE 032356Z AUTO 00000KT 10SM CLR 06/M01 A2993 RMK AO2 SLP136 T00611011 10144 20061 53006
KCPK - Chesapeake, Virginia, USA
Distance from station: W 6mi, 9km
Updated: Wed, 03-Mar-2021 7:35pm EST
Clear
Clear
 Wind from ENE
Wind: ENE 3 mph , 6 km/h
Temperature: 43°F , 6°C
Dew Point: 32°F , 0°C
Humidity: 66%
Barometer: 29.93 inHg , 1013.5 hPa
Clouds: Clear
Visibility: 10 miles , 16 km
2021/03/04 00:35 KCPK 040035Z AUTO 07003KT 10SM CLR 06/00 A2993 RMK AO2 T00580000
 
KNTU - Oceana Nas/Souce, Virginia, USA
Distance from station: NE 14mi, 23km
Updated: Wed, 03-Mar-2021 6:56pm EST
Clear
Clear
 Wind from calm
Wind: Calm
Temperature: 46°F , 8°C
Dew Point: 27°F , -3°C
Humidity: 46%
Barometer: 29.92 inHg , 1013.2 hPa
Clouds: Clear
Visibility: 10 miles , 16 km
2021/03/03 23:56 KNTU 032356Z 00000KT 10SM CLR 08/M03 A2992 RMK AO2 SLP133 T00781028 10133 20078 53004
KORF - Norfolk, Virginia, USA
Distance from station: N 15mi, 24km
Updated: Wed, 03-Mar-2021 6:51pm EST
Clear
Clear
 Wind from SSE
Wind: SSE 5 mph , 7 km/h
Temperature: 52°F , 11°C
Dew Point: 30°F , -1°C
Humidity: 44%
Barometer: 29.91 inHg , 1012.9 hPa
Clouds: Clear
Visibility: 10 miles , 16 km
2021/03/03 23:51 KORF 032351Z 16004KT 10SM CLR 11/M01 A2991 RMK AO2 SLP128 T01061011 10139 20106 53003
 
KPVG - Norfolk/Hampton, Virginia, USA
Distance from station: WNW 15mi, 24km
Updated: Wed, 03-Mar-2021 6:56pm EST
Clear
Clear
 Wind from calm
Wind: Calm
Temperature: 39°F , 4°C
Dew Point: 28°F , -2°C
Humidity: 65%
Barometer: 29.93 inHg , 1013.5 hPa
Clouds: Clear
Visibility: 10 miles , 16 km
2021/03/03 23:56 KPVG 032356Z AUTO 00000KT 10SM CLR 04/M02 A2993 RMK AO2 SLP137 6//// T00391017 10161 20039 53006 PNO $
KNGU - Norfolk Nas/Cham, Virginia, USA
Distance from station: N 16mi, 26km
Updated: Wed, 03-Mar-2021 6:59pm EST
Clear
Clear
 Wind from varies
Wind: varies 5 mph , 7 km/h
Temperature: 46°F , 8°C
Wind Chill: 44°F , 7°C
Dew Point: 32°F , 0°C
Humidity: 57%
Barometer: 29.93 inHg , 1013.5 hPa
Clouds: Clear
Visibility: 10 miles , 16 km
2021/03/03 23:59 KNGU 032359Z VRB04KT 10SM CLR 08/00 A2993 RMK AO2 SLP134 T00830000 10150 20078 53005 $
 
KSFQ - Suffolk, Virginia, USA
Distance from station: W 21mi, 34km
Updated: Wed, 03-Mar-2021 7:15pm EST
Clear
Clear
 Wind from calm
Wind: Calm
Temperature: 46°F , 8°C
Dew Point: 32°F , 0°C
Humidity: 57%
Barometer: 29.93 inHg , 1013.5 hPa
Clouds: Clear
Visibility: 10 miles , 16 km
2021/03/04 00:15 KSFQ 040015Z AUTO 00000KT 10SM CLR 08/00 A2993 RMK AO2 T00771003
KONX - Currituck, North Carolina, USA
Distance from station: SSE 22mi, 36km
Updated: Wed, 03-Mar-2021 7:15pm EST
Clear
Clear
 Wind from calm
Wind: Calm
Temperature: 43°F , 6°C
Dew Point: 36°F , 2°C
Humidity: 76%
Barometer: 29.92 inHg , 1013.2 hPa
Clouds: Clear
Visibility: 10 miles , 16 km
2021/03/04 00:15 KONX 040015Z AUTO 00000KT 10SM CLR 06/02 A2992 RMK AO2 T00600018
 
KLFI - Langley Afb/Hamp, Virginia, USA
Distance from station: NNW 28mi, 45km
Updated: Wed, 03-Mar-2021 6:56pm EST
Clear
Clear
 Wind from calm
Wind: Calm
Temperature: 45°F , 7°C
Dew Point: 36°F , 2°C
Humidity: 71%
Barometer: 29.91 inHg , 1012.9 hPa
Clouds: Clear
Visibility: 10 miles , 16 km
2021/03/03 23:56 KLFI 032356Z AUTO 00000KT 10SM CLR 07/02 A2991 RMK AO2 SLP135 T00660019 10142 20065 53003 $
KECG - Elizabeth City, North Carolina, USA
Distance from station: S 29mi, 46km
Updated: Wed, 03-Mar-2021 6:54pm EST
Clear
Clear
 Wind from SSE
Wind: SSE 3 mph , 6 km/h
Temperature: 46°F , 8°C
Dew Point: 32°F , 0°C
Humidity: 57%
Barometer: 29.92 inHg , 1013.2 hPa
Clouds: Clear
Visibility: 10 miles , 16 km
2021/03/03 23:54 KECG 032354Z 16003KT 10SM CLR 08/00 A2992 RMK AO2 SLP131 T00830000 10150 20083 53003
 
KPHF - Newport News, Virginia, USA
Distance from station: NNW 35mi, 56km
Updated: Wed, 03-Mar-2021 6:54pm EST
Light rain, Clear
Light rain, Clear
 Wind from E
Wind: E 3 mph , 6 km/h
Temperature: 45°F , 7°C
Dew Point: 34°F , 1°C
Humidity: 66%
Barometer: 29.92 inHg , 1013.2 hPa
Summary: Light rain
Clouds: Clear
Visibility: 10 miles , 16 km
2021/03/03 23:54 KPHF 032354Z 10003KT 10SM -RA CLR 07/01 A2992 RMK AO2 RAB49 SLP130 P0000 60000 T00670011 10133 20067 53002
KFAF - Ft Eustis/Felker, Virginia, USA
Distance from station: NW 37mi, 60km
Updated: Wed, 03-Mar-2021 6:56pm EST
Clear
Clear
 Wind from calm
Wind: Calm
Temperature: 46°F , 8°C
Dew Point: 34°F , 1°C
Humidity: 62%
Barometer: 29.89 inHg , 1012.2 hPa
Clouds: Clear
Visibility: 10 miles , 16 km
2021/03/03 23:56 KFAF 032356Z 00000KT 10SM CLR 08/01 A2989 RMK AO2A SLP125 T00820014 10143 20082 53001 $
 
KFKN - Franklin/J B Ros, Virginia, USA
Distance from station: W 38mi, 61km
Updated: Wed, 03-Mar-2021 7:15pm EST
Clear
Clear
 Wind from calm
Wind: Calm
Temperature: 43°F , 6°C
Dew Point: 30°F , -1°C
Humidity: 61%
Barometer: 29.93 inHg , 1013.5 hPa
Clouds: Clear
Visibility: 10 miles , 16 km
2021/03/04 00:15 KFKN 040015Z AUTO 00000KT 10SM CLR 06/M01 A2993 RMK AO2 T00561006
KJGG - Williamsburg, Virginia, USA
Distance from station: NW 47mi, 76km
Updated: Wed, 03-Mar-2021 7:15pm EST
Clear
Clear
 Wind from calm
Wind: Calm
Temperature: 46°F , 8°C
Dew Point: 36°F , 2°C
Humidity: 66%
Barometer: 29.92 inHg , 1013.2 hPa
Clouds: Clear
Visibility: 10 miles , 16 km
2021/03/04 00:15 KJGG 040015Z AUTO 00000KT 10SM CLR 08/02 A2992 RMK AO1
 
KAKQ - Norfolk/Wakefld, Virginia, USA
Distance from station: WNW 48mi, 78km
Updated: Wed, 03-Mar-2021 6:54pm EST
Clear
Clear
 Wind from calm
Wind: Calm
Temperature: 46°F , 8°C
Dew Point: 36°F , 2°C
Humidity: 66%
Barometer: 29.91 inHg , 1012.9 hPa
Clouds: Clear
Visibility: 10 miles , 16 km
2021/03/03 23:54 KAKQ 032354Z AUTO 00000KT 10SM CLR 08/02 A2991 RMK AO2 SLP132 T00780022 10161 20078 53002 $
KEDE - Edenton, North Carolina, USA
Distance from station: SSW 50mi, 80km
Updated: Wed, 03-Mar-2021 7:15pm EST
Clear
Clear
 Wind from calm
Wind: Calm
Temperature: 46°F , 8°C
Dew Point: 43°F , 6°C
Humidity: 87%
Barometer: 29.93 inHg , 1013.5 hPa
Clouds: Clear
Visibility: 7 miles , 11 km
2021/03/04 00:15 KEDE 040015Z AUTO 00000KT 7SM CLR 08/06 A2993 RMK AO2 T00810056